Time;durP1;ratioP1;P1;durP2;ratioP2;P2;SDS_P1;SDS_P2;PMS_P1;PMS_P2;Temp;Humidity;BMP_temperature;BMP_pressure;BME280_temperature;BME280_humidity;BME280_pressure;Samples;Min_cycle;Max_cycle;Signal;HPM_P1;HPM_P2
2024/03/30 00:02:28;;;;;;;0.00;0.00;;;;;;;-145.06;100.00;52394.06;10473887;28;20112;-69
2024/03/30 00:07:29;;;;;;;0.10;0.10;;;;;;;-145.06;100.00;52396.06;10476401;28;20100;-69
2024/03/30 00:12:30;;;;;;;0.10;0.10;;;;;;;-145.06;100.00;52387.97;10472101;28;20475;-70
2024/03/30 00:17:30;;;;;;;0.10;0.10;;;;;;;-145.06;100.00;52385.97;10476314;28;20017;-70
2024/03/30 00:22:31;;;;;;;0.10;0.10;;;;;;;-145.06;100.00;52396.06;10476022;28;20025;-70
2024/03/30 00:27:31;;;;;;;0.00;0.00;;;;;;;-145.06;100.00;52420.38;10468874;28;20028;-69
2024/03/30 00:32:31;;;;;;;0.10;0.10;;;;;;;-145.06;100.00;52440.63;10472090;28;20259;-69
2024/03/30 00:37:32;;;;;;;0.10;0.10;;;;;;;-145.06;100.00;52438.59;10467850;28;20024;-70
2024/03/30 00:42:32;;;;;;;0.00;0.00;;;;;;;-145.06;100.00;52394.06;10468811;28;20086;-69
2024/03/30 00:47:32;;;;;;;0.10;0.10;;;;;;;-145.06;100.00;52422.41;10487524;28;20481;-69
2024/03/30 00:52:33;;;;;;;0.10;0.10;;;;;;;-145.06;100.00;52426.44;10485426;28;20026;-69
2024/03/30 00:57:33;;;;;;;0.10;0.10;;;;;;;-145.06;100.00;52373.81;10484351;28;20448;-69
2024/03/30 01:02:33;;;;;;;0.10;0.10;;;;;;;-145.06;100.00;52398.09;10487208;28;20024;-70
2024/03/30 01:07:34;;;;;;;0.05;0.05;;;;;;;-145.06;100.00;52444.66;10482170;28;20103;-68
2024/03/30 01:12:35;;;;;;;0.10;0.10;;;;;;;-145.06;100.00;52424.41;10483684;28;20024;-69
2024/03/30 01:17:35;;;;;;;0.00;0.00;;;;;;;-145.06;100.00;52470.97;10483842;28;20020;-69
2024/03/30 01:22:37;;;;;;;0.10;0.10;;;;;;;-145.06;100.00;52450.75;10480786;28;20107;-70
2024/03/30 01:27:37;;;;;;;0.10;0.10;;;;;;;-145.06;100.00;52446.69;10482780;28;20013;-69
2024/03/30 01:32:38;;;;;;;0.10;0.10;;;;;;;-145.06;100.00;52392.03;10480290;28;20016;-69
2024/03/30 01:37:38;;;;;;;0.10;0.10;;;;;;;-145.06;100.00;52420.38;10477644;28;20108;-70
2024/03/30 01:42:39;;;;;;;0.10;0.10;;;;;;;-145.06;100.00;52446.69;10477299;28;20031;-70
2024/03/30 01:47:39;;;;;;;0.10;0.10;;;;;;;-145.06;100.00;52442.63;10480655;28;20046;-69
2024/03/30 01:52:40;;;;;;;0.10;0.10;;;;;;;-145.06;100.00;52446.69;10480744;28;20021;-69
2024/03/30 01:57:40;;;;;;;0.10;0.10;;;;;;;-145.06;100.00;52412.28;10479894;28;20470;-68
2024/03/30 02:02:41;;;;;;;0.10;0.10;;;;;;;-145.06;100.00;52452.75;10477045;28;20020;-69
2024/03/30 02:07:44;;;;;;;0.03;0.03;;;;;;;-145.06;100.00;52446.69;10477407;28;20350;-70
2024/03/30 02:12:44;;;;;;;0.10;0.10;;;;;;;-145.06;100.00;52444.66;10477818;28;20044;-69
2024/03/30 02:17:45;;;;;;;0.00;0.00;;;;;;;-145.06;100.00;52450.75;10479694;28;20064;-69
2024/03/30 02:22:53;;;;;;;0.00;0.00;;;;;;;-145.06;100.00;52442.63;10478766;28;20044;-68
2024/03/30 02:27:53;;;;;;;0.00;0.00;;;;;;;-145.06;100.00;52444.66;10474012;28;20024;-69
2024/03/30 02:32:54;;;;;;;0.10;0.10;;;;;;;-145.06;100.00;52436.56;10473608;28;20528;-69
2024/03/30 02:37:56;;;;;;;0.10;0.10;;;;;;;-145.06;100.00;52440.63;10477602;28;20538;-69
2024/03/30 02:42:56;;;;;;;0.10;0.10;;;;;;;-145.06;100.00;52470.97;10477740;28;20071;-69
2024/03/30 02:47:56;;;;;;;0.10;0.10;;;;;;;-145.06;100.00;52485.16;10479839;28;20024;-69
2024/03/30 02:52:57;;;;;;;0.00;0.00;;;;;;;-145.06;100.00;52470.97;10476452;28;20463;-69
2024/03/30 02:57:57;;;;;;;0.10;0.10;;;;;;;-145.06;100.00;52468.97;10476484;28;20464;-69
2024/03/30 03:02:57;;;;;;;0.10;0.10;;;;;;;-145.06;100.00;52487.19;10474516;28;20020;-68
2024/03/30 03:07:57;;;;;;;0.10;0.10;;;;;;;-145.06;100.00;52491.22;10475930;28;20091;-69
2024/03/30 03:12:58;;;;;;;0.10;0.10;;;;;;;-145.06;100.00;52466.94;10470411;28;20041;-68
2024/03/30 03:17:58;;;;;;;0.00;0.00;;;;;;;-145.06;100.00;52460.84;10469610;28;20502;-68
2024/03/30 03:22:58;;;;;;;0.10;0.10;;;;;;;-145.06;100.00;52448.72;10475006;28;20051;-68
2024/03/30 03:27:59;;;;;;;0.00;0.00;;;;;;;-145.06;100.00;52444.66;10478202;28;20028;-68
2024/03/30 03:33:00;;;;;;;0.00;0.00;;;;;;;-145.06;100.00;52460.84;10474468;28;20021;-68
2024/03/30 03:38:00;;;;;;;0.10;0.10;;;;;;;-145.06;100.00;52450.75;10478114;28;20025;-69
2024/03/30 03:43:01;;;;;;;0.10;0.10;;;;;;;-145.06;100.00;52432.53;10479307;28;20065;-68
2024/03/30 03:48:01;;;;;;;0.10;0.10;;;;;;;-145.06;100.00;52442.63;10481760;28;20025;-68
2024/03/30 03:53:01;;;;;;;0.10;0.10;;;;;;;-145.06;100.00;52442.63;10481622;28;20028;-69
2024/03/30 03:58:02;;;;;;;0.10;0.10;;;;;;;-145.06;100.00;52434.53;10483788;28;20017;-69
2024/03/30 04:03:02;;;;;;;0.10;0.10;;;;;;;-145.06;100.00;52450.75;10485139;28;20020;-68
2024/03/30 04:08:03;;;;;;;0.10;0.10;;;;;;;-145.06;100.00;52448.72;10478785;28;20020;-68
2024/03/30 04:13:03;;;;;;;0.10;0.10;;;;;;;-145.06;100.00;52473.00;10476030;28;20059;-68
2024/03/30 04:18:04;;;;;;;0.10;0.10;;;;;;;-145.06;100.00;52475.03;10477914;28;20013;-68
2024/03/30 04:23:04;;;;;;;0.00;0.00;;;;;;;-145.06;100.00;52495.28;10479965;28;20107;-68
2024/03/30 04:28:04;;;;;;;0.00;0.00;;;;;;;-145.06;100.00;52458.84;10479882;28;20040;-68
2024/03/30 04:33:05;;;;;;;0.10;0.10;;;;;;;-145.06;100.00;52454.78;10477789;28;20028;-68
2024/03/30 04:38:05;;;;;;;0.10;0.10;;;;;;;-145.06;100.00;52442.63;10479773;28;20287;-67
2024/03/30 04:43:05;;;;;;;0.00;0.00;;;;;;;-145.06;100.00;52418.34;10477197;28;20105;-67
2024/03/30 04:48:06;;;;;;;0.03;0.03;;;;;;;-145.06;100.00;52394.06;10481839;28;20816;-70
2024/03/30 04:53:06;;;;;;;0.10;0.10;;;;;;;-145.06;100.00;52398.09;10489320;28;20387;-68
2024/03/30 04:58:06;;;;;;;0.10;0.10;;;;;;;-145.06;100.00;52387.97;10481506;28;20033;-68
2024/03/30 05:03:06;;;;;;;0.00;0.00;;;;;;;-145.06;100.00;52398.09;10486722;28;20029;-68
2024/03/30 05:08:07;;;;;;;0.00;0.00;;;;;;;-145.06;100.00;52355.59;10483376;28;20017;-67
2024/03/30 05:13:07;;;;;;;0.10;0.10;;;;;;;-145.06;100.00;52349.50;10480996;28;20054;-69
2024/03/30 05:18:12;;;;;;;0.10;0.10;;;;;;;-145.06;100.00;52343.44;10483926;28;20040;-68
2024/03/30 05:23:12;;;;;;;0.10;0.10;;;;;;;-145.06;100.00;52357.63;10478697;28;20505;-70
2024/03/30 05:28:18;;;;;;;0.00;0.00;;;;;;;-145.06;100.00;52278.66;10482230;28;20024;-68
2024/03/30 05:33:19;;;;;;;0.00;0.00;;;;;;;-145.06;100.00;52232.09;10485291;28;20504;-68
2024/03/30 05:38:20;;;;;;;0.10;0.10;;;;;;;-145.06;100.00;52203.75;10479158;28;20029;-68
2024/03/30 05:43:20;;;;;;;0.10;0.10;;;;;;;-145.06;100.00;52193.66;10477348;28;20502;-68
2024/03/30 05:48:21;;;;;;;0.10;0.10;;;;;;;-145.06;100.00;52167.31;10477370;28;20061;-68
2024/03/30 05:53:21;;;;;;;0.08;0.08;;;;;;;-145.06;100.00;52155.19;10481748;28;20020;-68
2024/03/30 05:58:22;;;;;;;0.10;0.10;;;;;;;-145.06;100.00;52126.84;10479167;28;20021;-69
2024/03/30 06:03:22;;;;;;;0.10;0.10;;;;;;;-145.06;100.00;52126.84;10473921;28;20109;-69
2024/03/30 06:08:22;;;;;;;0.10;0.10;;;;;;;-145.06;100.00;52076.25;10478580;28;20037;-72
2024/03/30 06:13:22;;;;;;;0.10;0.10;;;;;;;-145.06;100.00;52090.41;10479637;28;20029;-69
2024/03/30 06:18:23;;;;;;;0.10;0.10;;;;;;;-145.06;100.00;52074.22;10471589;28;20021;-69
2024/03/30 06:23:23;;;;;;;0.10;0.10;;;;;;;-145.06;100.00;52147.09;10484707;28;20474;-69
2024/03/30 06:28:23;;;;;;;0.10;0.10;;;;;;;-145.06;100.00;52211.88;10481499;28;20020;-70
2024/03/30 06:33:23;;;;;;;0.10;0.10;;;;;;;-145.06;100.00;52234.13;10480065;28;20082;-69
2024/03/30 06:38:24;;;;;;;0.00;0.00;;;;;;;-145.06;100.00;52244.25;10476200;28;20390;-70
2024/03/30 06:43:42;;;;;;;0.10;0.10;;;;;;;-145.06;100.00;52207.81;10474441;28;20389;-70
2024/03/30 06:48:43;;;;;;;0.10;0.10;;;;;;;-145.06;100.00;52199.72;10472628;28;20016;-68
2024/03/30 06:53:43;;;;;;;0.10;0.10;;;;;;;-145.06;100.00;52179.47;10470100;28;20470;-68
2024/03/30 06:58:43;;;;;;;0.10;0.10;;;;;;;-145.06;100.00;52155.19;10472715;28;20540;-69
2024/03/30 07:03:43;;;;;;;0.10;0.10;;;;;;;-145.06;100.00;52163.28;10474933;28;20020;-68
2024/03/30 07:08:44;;;;;;;0.08;0.08;;;;;;;-145.06;100.00;52153.16;10464044;28;20032;-69
2024/03/30 07:13:44;;;;;;;0.10;0.10;;;;;;;-145.06;100.00;52084.34;10484374;28;20036;-68
2024/03/30 07:18:45;;;;;;;0.10;0.10;;;;;;;-145.06;100.00;52023.59;10479152;28;20097;-68
2024/03/30 07:23:45;;;;;;;0.10;0.10;;;;;;;-145.06;100.00;52070.16;10479807;28;20389;-67
2024/03/30 07:28:45;;;;;;;0.10;0.10;;;;;;;-145.06;100.00;52145.06;10478110;28;20082;-67
2024/03/30 07:33:46;;;;;;;0.10;0.10;;;;;;;-145.06;100.00;52064.09;10478936;28;20016;-67
2024/03/30 07:38:46;;;;;;;0.10;0.10;;;;;;;-145.06;100.00;51981.09;10478880;28;20500;-67
2024/03/30 07:43:46;;;;;;;0.10;0.10;;;;;;;-145.06;98.94;51991.22;10482766;28;20505;-67
2024/03/30 07:48:47;;;;;;;0.00;0.00;;;;;;;-145.06;95.13;51906.22;10478371;28;20028;-68
2024/03/30 07:53:47;;;;;;;0.00;0.00;;;;;;;-145.06;93.29;51910.25;10474434;28;20498;-68
2024/03/30 07:58:47;;;;;;;0.00;0.00;;;;;;;-145.06;94.07;51859.66;10476636;28;20490;-69
2024/03/30 08:03:47;;;;;;;0.10;0.10;;;;;;;-145.06;87.48;51877.88;10477812;28;20393;-68
2024/03/30 08:08:48;;;;;;;0.10;0.10;;;;;;;-145.06;80.62;51938.59;10479201;28;20482;-68
2024/03/30 08:13:48;;;;;;;0.00;0.00;;;;;;;-145.06;78.76;51938.59;10482195;28;20028;-68
2024/03/30 08:18:48;;;;;;;0.00;0.00;;;;;;;-145.06;78.97;51926.44;10479326;28;20059;-67
2024/03/30 08:23:49;;;;;;;0.00;0.00;;;;;;;-145.06;77.19;51934.53;10478879;28;20027;-68
2024/03/30 08:28:50;;;;;;;0.00;0.00;;;;;;;-145.06;75.53;51946.69;10477284;28;20390;-70
2024/03/30 08:33:52;;;;;;;0.00;0.00;;;;;;;-145.06;79.85;52049.91;10477514;28;20013;-69
2024/03/30 08:38:52;;;;;;;0.00;0.00;;;;;;;-145.06;81.66;52143.03;10479243;28;20112;-68
2024/03/30 08:43:53;;;;;;;0.05;0.05;;;;;;;-145.06;81.44;52134.94;10476664;28;20031;-68
2024/03/30 08:49:02;;;;;;;0.10;0.10;;;;;;;-145.06;83.93;52096.47;10471856;28;20024;-68
2024/03/30 08:54:03;;;;;;;0.00;0.00;;;;;;;-145.06;81.66;52074.22;10468905;28;20052;-68
2024/03/30 08:59:03;;;;;;;0.00;0.00;;;;;;;-145.06;81.40;52116.72;10476156;28;20115;-68
2024/03/30 09:04:03;;;;;;;0.00;0.00;;;;;;;-145.06;84.82;52098.50;10475466;28;20448;-68
2024/03/30 09:09:04;;;;;;;0.00;0.00;;;;;;;-145.06;82.39;52058.03;10476343;28;20076;-68
2024/03/30 09:14:05;;;;;;;0.00;0.00;;;;;;;-145.06;81.06;52045.88;10472550;28;20394;-69
2024/03/30 09:19:05;;;;;;;0.00;0.00;;;;;;;-145.06;79.12;52076.25;10472237;28;20028;-68
2024/03/30 09:24:06;;;;;;;0.10;0.10;;;;;;;-145.06;78.84;52084.34;10473734;28;20036;-68
2024/03/30 09:29:06;;;;;;;0.10;0.10;;;;;;;-145.06;81.29;52049.91;10474180;28;20406;-68
2024/03/30 09:34:06;;;;;;;0.10;0.10;;;;;;;-145.06;78.51;52064.09;10471194;28;20100;-68
2024/03/30 09:39:06;;;;;;;0.00;0.00;;;;;;;-145.06;81.13;52009.44;10471944;28;20502;-68
2024/03/30 09:44:08;;;;;;;0.00;0.00;;;;;;;-145.06;79.51;51993.25;10471726;28;20401;-68
2024/03/30 09:49:09;;;;;;;0.00;0.00;;;;;;;-145.06;78.51;51993.25;10472550;28;20032;-70
2024/03/30 09:54:12;;;;;;;0.10;0.10;;;;;;;-145.06;78.92;52021.59;10470003;28;20048;-68
2024/03/30 09:59:14;;;;;;;0.00;0.00;;;;;;;-145.06;81.53;51956.81;10472795;28;20024;-67
2024/03/30 10:04:14;;;;;;;0.00;0.00;;;;;;;-145.06;81.36;51989.19;10468327;28;20021;-67
2024/03/30 10:09:15;;;;;;;0.10;0.10;;;;;;;-145.06;80.91;52112.66;10469233;28;20023;-67
2024/03/30 10:14:39;;;;;;;0.00;0.00;;;;;;;-145.06;83.97;52094.47;10469796;28;20106;-67
2024/03/30 10:19:40;;;;;;;0.00;0.00;;;;;;;-145.06;85.10;52130.88;10471628;28;20020;-69
2024/03/30 10:24:41;;;;;;;0.10;0.10;;;;;;;-145.06;86.99;52025.63;10465971;28;20021;-68
2024/03/30 10:29:43;;;;;;;0.10;0.10;;;;;;;-145.06;82.85;52043.84;10470512;28;20031;-68
2024/03/30 10:34:44;;;;;;;0.10;0.10;;;;;;;-145.06;83.85;52009.44;10468804;28;20034;-68
2024/03/30 10:39:45;;;;;;;0.00;0.00;;;;;;;-145.06;81.64;52019.56;10475215;28;20485;-68
2024/03/30 10:44:45;;;;;;;0.00;0.00;;;;;;;-145.06;81.20;52003.38;10470011;28;20016;-69
2024/03/30 10:49:45;;;;;;;0.00;0.00;;;;;;;-145.06;78.51;51993.25;10478284;28;20040;-68
2024/03/30 10:54:46;;;;;;;0.10;0.10;;;;;;;-145.06;81.46;51948.72;10477922;28;20029;-69
2024/03/30 10:59:48;;;;;;;0.07;0.07;;;;;;;-145.06;81.58;51883.94;10480346;28;20756;-69
2024/03/30 11:04:53;;;;;;;0.00;0.00;;;;;;;-145.06;78.20;51906.22;10478407;28;20115;-68
2024/03/30 11:09:54;;;;;;;0.00;0.00;;;;;;;-145.06;78.07;51894.06;10480313;28;20059;-69
2024/03/30 11:14:55;;;;;;;0.00;0.00;;;;;;;-145.06;74.95;51948.72;10469306;28;20021;-69
2024/03/30 11:20:08;;;;;;;0.00;0.00;;;;;;;-145.06;73.62;51989.19;10475642;28;20433;-69
2024/03/30 11:25:12;;;;;;;0.10;0.10;;;;;;;-145.06;75.79;51977.06;10479933;28;20090;-68
2024/03/30 11:30:28;;;;;;;0.10;0.10;;;;;;;-145.06;75.45;51995.28;10483952;28;20044;-69
2024/03/30 11:35:34;;;;;;;0.10;0.10;;;;;;;-145.06;74.12;52066.13;10482781;28;20397;-69
2024/03/30 11:40:42;;;;;;;0.00;0.00;;;;;;;-145.06;76.28;51977.06;10476720;28;20040;-68
2024/03/30 11:45:43;;;;;;;0.00;0.00;;;;;;;-145.06;78.31;51936.56;10476118;28;20016;-69
2024/03/30 11:50:44;;;;;;;0.00;0.00;;;;;;;-145.06;75.87;51892.03;10476307;28;20450;-69
2024/03/30 11:55:48;;;;;;;0.00;0.00;;;;;;;-145.06;74.85;51853.56;10472013;28;20060;-69
2024/03/30 12:00:58;;;;;;;0.08;0.08;;;;;;;-145.06;75.70;51794.88;10488608;28;20044;-69
2024/03/30 12:06:00;;;;;;;0.00;0.00;;;;;;;-145.06;72.99;51786.78;10484567;28;20103;-69
2024/03/30 12:11:04;;;;;;;0.10;0.10;;;;;;;-145.06;72.51;51738.22;10484136;28;20048;-69
2024/03/30 12:16:05;;;;;;;0.00;0.00;;;;;;;-145.06;65.03;51839.41;10482803;28;20103;-69
2024/03/30 12:21:07;;;;;;;0.00;0.00;;;;;;;-145.06;65.31;51837.38;10484880;28;20017;-69
2024/03/30 12:26:08;;;;;;;0.00;0.00;;;;;;;-145.06;63.51;51857.63;10483358;28;20447;-69
2024/03/30 12:31:08;;;;;;;0.10;0.10;;;;;;;-145.06;64.05;51867.75;10488207;28;20020;-69
2024/03/30 12:36:09;;;;;;;0.00;0.00;;;;;;;-145.06;63.81;51894.06;10478923;28;20021;-69
2024/03/30 12:41:09;;;;;;;0.00;0.00;;;;;;;-145.06;60.19;51966.94;10474571;28;20805;-69
2024/03/30 12:46:09;;;;;;;0.10;0.10;;;;;;;-145.06;60.70;51981.09;10467313;28;20017;-69
2024/03/30 12:51:10;;;;;;;0.00;0.00;;;;;;;-145.06;65.01;51916.31;10470271;28;20021;-69
2024/03/30 12:56:10;;;;;;;0.00;0.00;;;;;;;-145.06;64.77;51912.28;10474574;28;20031;-69
2024/03/30 13:01:10;;;;;;;0.00;0.00;;;;;;;-145.06;62.09;51944.66;10460807;28;20660;-69
2024/03/30 13:06:12;;;;;;;0.10;0.10;;;;;;;-145.06;60.63;51912.28;10471410;28;20048;-69
2024/03/30 13:11:12;;;;;;;0.10;0.10;;;;;;;-145.06;60.19;51902.16;10467127;28;20033;-69
2024/03/30 13:16:23;;;;;;;0.00;0.00;;;;;;;-145.06;58.53;51881.91;10467984;28;20021;-69
2024/03/30 13:21:24;;;;;;;0.00;0.00;;;;;;;-145.06;58.67;51896.09;10462198;28;20032;-69
2024/03/30 13:26:24;;;;;;;0.00;0.00;;;;;;;-145.06;55.70;52011.47;10471235;28;20020;-69
2024/03/30 13:31:24;;;;;;;0.00;0.00;;;;;;;-145.06;58.25;51979.06;10470410;28;20478;-69
2024/03/30 13:36:25;;;;;;;0.10;0.10;;;;;;;-145.06;56.99;51997.28;10471260;28;20028;-69
2024/03/30 13:41:25;;;;;;;0.10;0.10;;;;;;;-145.06;58.26;51944.66;10466704;28;20371;-69
2024/03/30 13:46:26;;;;;;;0.10;0.10;;;;;;;-145.06;60.14;51902.16;10472656;28;20591;-69
2024/03/30 13:51:26;;;;;;;0.00;0.00;;;;;;;-145.06;57.48;51977.06;10470970;28;20020;-69
2024/03/30 13:56:26;;;;;;;0.08;0.08;;;;;;;-145.06;51.59;52183.53;10462444;28;20311;-69
2024/03/30 14:01:26;;;;;;;0.10;0.10;;;;;;;-145.06;52.07;52126.84;10466823;28;20298;-69
2024/03/30 14:06:27;;;;;;;0.00;0.00;;;;;;;-145.06;54.27;52132.91;10467209;28;20074;-69
2024/03/30 14:11:27;;;;;;;0.00;0.00;;;;;;;-145.06;60.02;52051.94;10462419;28;20028;-69
2024/03/30 14:16:28;;;;;;;0.00;0.00;;;;;;;-145.06;61.69;52021.59;10465274;28;20082;-69
2024/03/30 14:21:28;;;;;;;0.00;0.00;;;;;;;-145.06;62.65;51981.09;10465007;28;20029;-69
2024/03/30 14:26:30;;;;;;;0.10;0.10;;;;;;;-145.06;63.60;51968.94;10461667;28;20031;-69
2024/03/30 14:31:30;;;;;;;0.10;0.10;;;;;;;-145.06;63.74;52025.63;10464607;28;20487;-69
2024/03/30 14:36:34;;;;;;;0.00;0.00;;;;;;;-145.06;65.96;52023.59;10465701;28;20115;-70
2024/03/30 14:41:34;;;;;;;0.00;0.00;;;;;;;-145.06;64.58;52027.66;10458006;28;20180;-70
2024/03/30 14:46:35;;;;;;;0.00;0.00;;;;;;;-145.06;62.13;52072.19;10458291;28;20108;-71
2024/03/30 14:51:35;;;;;;;0.00;0.00;;;;;;;-145.06;61.29;52102.56;10464133;28;20436;-72
2024/03/30 14:56:35;;;;;;;0.00;0.00;;;;;;;-145.06;62.21;52098.50;10466490;28;20490;-72
2024/03/30 15:01:36;;;;;;;0.10;0.10;;;;;;;-145.06;61.64;52124.81;10457977;28;20029;-72
2024/03/30 15:06:36;;;;;;;0.10;0.10;;;;;;;-145.06;62.06;52153.16;10463692;28;20021;-72
2024/03/30 15:11:37;;;;;;;0.10;0.10;;;;;;;-145.06;62.35;52195.66;10463236;28;20028;-72
2024/03/30 15:16:37;;;;;;;0.00;0.00;;;;;;;-145.06;64.07;52167.31;10467404;28;20033;-72
2024/03/30 15:21:37;;;;;;;0.00;0.00;;;;;;;-145.06;66.97;52187.56;10464354;28;20076;-72
2024/03/30 15:26:38;;;;;;;0.00;0.00;;;;;;;-145.06;65.90;52211.88;10456203;28;20017;-72
2024/03/30 15:36:57;;;;;;;0.00;0.00;;;;;;;-145.06;71.53;52209.84;10468456;28;20037;-72
2024/03/30 15:41:57;;;;;;;0.10;0.10;;;;;;;-145.06;71.59;52258.41;10466782;28;20020;-72
2024/03/30 15:46:57;;;;;;;0.00;0.00;;;;;;;-145.06;72.77;52252.34;10469639;28;20017;-72
2024/03/30 15:51:57;;;;;;;0.00;0.00;;;;;;;-145.06;74.48;52254.38;10469618;28;20021;-72
2024/03/30 15:56:58;;;;;;;0.08;0.08;;;;;;;-145.06;73.78;52292.84;10468946;28;20025;-72
2024/03/30 16:01:58;;;;;;;0.00;0.00;;;;;;;-145.06;74.71;52280.69;10468397;28;20528;-71
2024/03/30 16:06:58;;;;;;;0.00;0.00;;;;;;;-145.06;76.67;52286.75;10473858;28;20383;-71
2024/03/30 16:12:00;;;;;;;0.00;0.00;;;;;;;-145.06;78.04;52282.72;10470777;28;20511;-72
2024/03/30 16:17:04;;;;;;;0.10;0.10;;;;;;;-145.06;79.37;52309.03;10466952;28;20434;-72
2024/03/30 16:22:04;;;;;;;0.08;0.08;;;;;;;-145.06;80.89;52300.94;10469920;28;20028;-72
2024/03/30 16:27:04;;;;;;;0.00;0.00;;;;;;;-145.06;82.25;52311.06;10478080;28;20024;-72
2024/03/30 16:32:05;;;;;;;0.10;0.10;;;;;;;-145.06;83.92;52309.03;10475551;28;20021;-72
2024/03/30 16:37:06;;;;;;;0.00;0.00;;;;;;;-145.06;85.85;52309.03;10476479;28;20025;-73
2024/03/30 16:42:06;;;;;;;0.00;0.00;;;;;;;-145.06;86.98;52315.09;10476892;28;20023;-72
2024/03/30 16:47:06;;;;;;;0.00;0.00;;;;;;;-145.06;88.13;52353.56;10471316;28;20021;-71
2024/03/30 16:52:07;;;;;;;0.10;0.10;;;;;;;-145.06;89.33;52335.34;10471227;28;20420;-71
2024/03/30 16:57:08;;;;;;;0.00;0.00;;;;;;;-145.06;88.64;52315.09;10474666;28;20482;-71
2024/03/30 17:02:08;;;;;;;0.00;0.00;;;;;;;-145.06;88.87;52309.03;10475751;28;20094;-71
2024/03/30 17:07:09;;;;;;;0.10;0.10;;;;;;;-145.06;89.80;52325.22;10473583;28;20024;-71
2024/03/30 17:12:09;;;;;;;0.10;0.10;;;;;;;-145.06;91.30;52317.13;10481901;28;20029;-71
2024/03/30 17:17:10;;;;;;;0.00;0.00;;;;;;;-145.06;92.69;52307.00;10469595;28;20021;-71
2024/03/30 17:22:10;;;;;;;0.00;0.00;;;;;;;-145.06;94.01;52315.09;10474924;28;20282;-72
2024/03/30 17:27:10;;;;;;;0.10;0.10;;;;;;;-145.06;94.85;52309.03;10478238;28;20017;-72
2024/03/30 17:32:11;;;;;;;0.10;0.10;;;;;;;-145.06;95.40;52304.97;10475926;28;20107;-71
2024/03/30 17:37:11;;;;;;;0.10;0.10;;;;;;;-145.06;96.61;52337.38;10471765;28;20032;-72
2024/03/30 17:42:11;;;;;;;0.00;0.00;;;;;;;-145.06;97.56;52317.13;10472820;28;20104;-71
2024/03/30 17:47:12;;;;;;;0.10;0.10;;;;;;;-145.06;98.76;52349.50;10478938;28;20024;-71
2024/03/30 17:52:12;;;;;;;0.10;0.10;;;;;;;-145.06;99.99;52319.16;10475201;28;20052;-71
2024/03/30 17:57:12;;;;;;;0.00;0.00;;;;;;;-145.06;100.00;52351.53;10472083;28;20032;-72
2024/03/30 18:02:13;;;;;;;0.00;0.00;;;;;;;-145.06;100.00;52345.47;10477997;28;20552;-71
2024/03/30 18:07:13;;;;;;;0.03;0.03;;;;;;;-145.06;99.35;52402.16;10474471;28;20024;-72
2024/03/30 18:12:13;;;;;;;0.10;0.10;;;;;;;-145.06;98.16;52422.41;10472528;28;20020;-72
2024/03/30 18:17:13;;;;;;;0.05;0.05;;;;;;;-145.06;97.84;52420.38;10470171;28;20535;-70
2024/03/30 18:22:14;;;;;;;0.08;0.08;;;;;;;-145.06;96.84;52446.69;10471250;28;20048;-71
2024/03/30 18:27:14;;;;;;;0.10;0.10;;;;;;;-145.06;95.91;52479.06;10476628;28;20371;-70
2024/03/30 18:32:15;;;;;;;0.10;0.10;;;;;;;-145.06;94.90;52515.53;10469745;28;20021;-71
2024/03/30 18:37:15;;;;;;;0.00;0.00;;;;;;;-145.06;94.52;52531.72;10471124;28;20433;-71
2024/03/30 18:42:15;;;;;;;0.10;0.10;;;;;;;-145.06;94.48;52527.66;10464136;28;20033;-71
2024/03/30 18:47:15;;;;;;;0.10;0.10;;;;;;;-145.06;93.49;52547.91;10474600;28;20062;-72
2024/03/30 18:52:16;;;;;;;0.00;0.00;;;;;;;-145.06;93.65;52594.47;10470442;28;20031;-71
2024/03/30 18:57:16;;;;;;;0.10;0.10;;;;;;;-145.06;93.03;52614.72;10468163;28;20044;-71
2024/03/30 19:02:16;;;;;;;0.10;0.10;;;;;;;-145.06;90.48;52628.88;10467200;28;20513;-71
2024/03/30 19:07:16;;;;;;;0.10;0.10;;;;;;;-145.06;88.66;52661.28;10478554;28;20017;-72
2024/03/30 19:12:20;;;;;;;0.10;0.10;;;;;;;-145.06;86.58;52705.81;10477963;28;20517;-70
2024/03/30 19:17:21;;;;;;;0.00;0.00;;;;;;;-145.06;85.85;52734.16;10484684;28;20384;-70
2024/03/30 19:22:27;;;;;;;0.10;0.10;;;;;;;-145.06;84.93;52742.25;10479892;28;20035;-70
2024/03/30 19:27:27;;;;;;;0.10;0.10;;;;;;;-145.06;84.58;52758.47;10479472;28;20445;-70
2024/03/30 19:32:27;;;;;;;0.10;0.10;;;;;;;-145.06;83.91;52766.56;10482435;28;20035;-70
2024/03/30 19:37:28;;;;;;;0.00;0.00;;;;;;;-145.06;83.02;52768.59;10482683;28;20501;-70
2024/03/30 19:42:28;;;;;;;0.00;0.00;;;;;;;-145.06;82.72;52754.41;10480094;28;20074;-69
2024/03/30 19:47:29;;;;;;;0.10;0.10;;;;;;;-145.06;81.94;52770.59;10477804;28;20017;-70
2024/03/30 19:52:29;;;;;;;0.00;0.00;;;;;;;-145.06;81.61;52738.22;10482648;28;20032;-70
2024/03/30 19:57:30;;;;;;;0.10;0.10;;;;;;;-145.06;82.15;52746.31;10481059;28;20043;-70
2024/03/30 20:02:30;;;;;;;0.10;0.10;;;;;;;-145.06;82.90;52760.47;10473115;28;20025;-70
2024/03/30 20:07:30;;;;;;;0.10;0.10;;;;;;;-145.06;83.99;52764.53;10476363;28;20390;-70
2024/03/30 20:12:32;;;;;;;0.00;0.00;;;;;;;-145.06;85.27;52750.38;10473340;28;20399;-70
2024/03/30 20:17:32;;;;;;;0.10;0.10;;;;;;;-145.06;86.92;52768.59;10479161;28;20632;-70
2024/03/30 20:22:33;;;;;;;0.08;0.08;;;;;;;-145.06;89.16;52754.41;10478486;28;20029;-71
2024/03/30 20:27:33;;;;;;;0.00;0.00;;;;;;;-145.06;90.83;52750.38;10477466;28;20017;-71
2024/03/30 20:32:33;;;;;;;0.10;0.10;;;;;;;-145.06;92.06;52742.25;10474190;28;20025;-70
2024/03/30 20:37:34;;;;;;;0.00;0.00;;;;;;;-145.06;91.22;52778.72;10471806;28;20298;-70
2024/03/30 20:42:34;;;;;;;0.00;0.00;;;;;;;-145.06;91.14;52778.72;10471887;28;20275;-71
2024/03/30 20:47:34;;;;;;;0.10;0.10;;;;;;;-145.06;91.23;52798.94;10482080;28;20025;-71
2024/03/30 20:52:35;;;;;;;0.10;0.10;;;;;;;-145.06;91.47;52813.13;10473376;28;20340;-72
2024/03/30 20:57:35;;;;;;;0.05;0.05;;;;;;;-145.06;90.57;52839.44;10471408;28;20047;-70
2024/03/30 21:02:35;;;;;;;0.00;0.00;;;;;;;-145.06;90.50;52833.38;10478343;28;20018;-71
2024/03/30 21:07:36;;;;;;;0.00;0.00;;;;;;;-145.06;89.74;52861.72;10472802;28;20043;-71
2024/03/30 21:12:36;;;;;;;0.10;0.10;;;;;;;-145.06;89.85;52851.59;10468391;28;20112;-72
2024/03/30 21:17:37;;;;;;;0.10;0.10;;;;;;;-145.06;90.61;52904.22;10464732;28;20029;-71
2024/03/30 21:22:38;;;;;;;0.10;0.10;;;;;;;-145.06;90.70;52859.69;10464361;28;20090;-72
2024/03/30 21:27:39;;;;;;;0.10;0.10;;;;;;;-145.06;91.17;52900.19;10468175;28;20450;-70
2024/03/30 21:32:41;;;;;;;0.00;0.00;;;;;;;-145.06;91.76;52912.34;10476016;28;20056;-72
2024/03/30 21:37:41;;;;;;;0.10;0.10;;;;;;;-145.06;92.29;52944.72;10475606;28;20048;-70
2024/03/30 21:42:41;;;;;;;0.00;0.00;;;;;;;-145.06;92.51;52964.97;10472737;28;20030;-71
2024/03/30 21:47:41;;;;;;;0.00;0.00;;;;;;;-145.06;93.01;52956.88;10469001;28;20020;-72
2024/03/30 21:52:42;;;;;;;0.10;0.10;;;;;;;-145.06;93.91;52948.78;10472439;28;20028;-70
2024/03/30 21:57:42;;;;;;;0.00;0.00;;;;;;;-145.06;94.57;52983.19;10471716;28;20032;-71
2024/03/30 22:02:43;;;;;;;0.10;0.10;;;;;;;-145.06;95.45;52993.31;10467727;28;20076;-71
2024/03/30 22:07:43;;;;;;;0.00;0.00;;;;;;;-145.06;96.38;52993.31;10465749;28;20031;-71
2024/03/30 22:12:43;;;;;;;0.10;0.10;;;;;;;-145.06;97.50;53013.56;10461786;28;20151;-72
2024/03/30 22:17:44;;;;;;;0.00;0.00;;;;;;;-145.06;98.25;53031.78;10462053;28;20315;-71
2024/03/30 22:22:44;;;;;;;0.10;0.10;;;;;;;-145.06;99.23;53029.75;10461172;28;20024;-71
2024/03/30 22:27:45;;;;;;;0.00;0.00;;;;;;;-145.06;100.00;53039.88;10461145;28;20033;-71
2024/03/30 22:32:45;;;;;;;0.10;0.10;;;;;;;-145.06;100.00;53047.97;10463871;28;20037;-71
2024/03/30 22:37:45;;;;;;;0.10;0.10;;;;;;;-145.06;100.00;53039.88;10463072;28;20082;-71
2024/03/30 22:42:46;;;;;;;0.10;0.10;;;;;;;-145.06;100.00;53031.78;10467460;28;20089;-71
2024/03/30 22:47:46;;;;;;;0.10;0.10;;;;;;;-145.06;100.00;53011.53;10480248;28;20389;-71